Time;durP1;ratioP1;P1;durP2;ratioP2;P2;SDS_P1;SDS_P2;PMS_P1;PMS_P2;Temp;Humidity;BMP_temperature;BMP_pressure;BME280_temperature;BME280_humidity;BME280_pressure;Samples;Min_cycle;Max_cycle;Signal;HPM_P1;HPM_P2
2022/05/22 00:00:40;;;;;;;6.88;4.00;;;;;;;;;;6212725;28;20105;-69
2022/05/22 00:03:43;;;;;;;8.13;3.60;;;;;;;;;;6216645;28;20069;-68
2022/05/22 00:06:45;;;;;;;5.95;3.85;;;;;;;;;;6215545;28;20226;-69
2022/05/22 00:09:47;;;;;;;8.40;3.95;;;;;;;;;;6216711;28;20371;-69
2022/05/22 00:12:49;;;;;;;9.20;4.47;;;;;;;;;;6209456;28;20056;-68
2022/05/22 00:19:15;;;;;;;6.22;3.50;;;;;;;;;;6222288;28;20054;-69
2022/05/22 00:22:17;;;;;;;5.88;3.90;;;;;;;;;;6217182;28;20069;-75
2022/05/22 00:25:19;;;;;;;9.20;3.72;;;;;;;;;;6220391;28;20077;-74
2022/05/22 00:28:20;;;;;;;5.88;3.88;;;;;;;;;;6215527;28;20054;-74
2022/05/22 00:31:22;;;;;;;7.03;3.90;;;;;;;;;;6213504;28;20108;-74
2022/05/22 00:34:25;;;;;;;9.38;4.18;;;;;;;;;;6215970;28;20046;-74
2022/05/22 00:37:27;;;;;;;;;;;;;;;;;;6215466;28;20105;-74
2022/05/22 00:40:28;;;;;;;11.63;4.47;;;;;;;;;;6218046;28;20148;-74
2022/05/22 00:43:31;;;;;;;8.95;3.70;;;;;;;;;;6215691;28;20062;-74
2022/05/22 00:46:33;;;;;;;4.78;4.28;;;;;;;;;;6218135;28;20367;-74
2022/05/22 00:49:38;;;;;;;6.07;3.78;;;;;;;;;;6219975;28;20064;-74
2022/05/22 00:52:44;;;;;;;8.05;4.30;;;;;;;;;;6214247;28;20115;-74
2022/05/22 00:55:46;;;;;;;7.15;4.20;;;;;;;;;;6222513;28;20245;-74
2022/05/22 00:58:48;;;;;;;6.18;3.70;;;;;;;;;;6211497;28;20369;-74
2022/05/22 01:01:50;;;;;;;8.50;3.80;;;;;;;;;;6212012;28;20046;-74
2022/05/22 01:04:53;;;;;;;9.05;3.90;;;;;;;;;;6210755;28;20054;-74
2022/05/22 01:07:57;;;;;;;7.82;3.85;;;;;;;;;;6207708;28;20057;-74
2022/05/22 01:11:01;;;;;;;7.05;4.47;;;;;;;;;;6210937;28;20093;-74
2022/05/22 01:14:07;;;;;;;9.27;3.85;;;;;;;;;;6213409;28;20050;-74
2022/05/22 01:17:10;;;;;;;8.25;3.67;;;;;;;;;;6213505;28;20050;-74
2022/05/22 01:20:14;;;;;;;;;;;;;;;;;;6211374;28;20152;-73
2022/05/22 01:23:17;;;;;;;5.22;3.80;;;;;;;;;;6212728;28;19926;-74
2022/05/22 01:26:20;;;;;;;8.95;3.80;;;;;;;;;;6210334;28;20057;-74
2022/05/22 01:29:22;;;;;;;9.87;3.83;;;;;;;;;;6209769;28;20257;-74
2022/05/22 01:32:23;;;;;;;6.57;3.40;;;;;;;;;;6213099;28;20058;-74
2022/05/22 01:35:27;;;;;;;6.45;3.80;;;;;;;;;;6211970;28;20054;-74
2022/05/22 01:38:30;;;;;;;12.82;4.43;;;;;;;;;;6209800;28;20058;-74
2022/05/22 01:41:32;;;;;;;8.25;3.83;;;;;;;;;;6211778;28;20046;-74
2022/05/22 01:44:34;;;;;;;10.65;3.88;;;;;;;;;;6210351;28;20050;-73
2022/05/22 01:47:36;;;;;;;4.80;3.85;;;;;;;;;;6208879;28;20073;-74
2022/05/22 01:50:39;;;;;;;6.80;4.30;;;;;;;;;;6209974;28;20057;-73
2022/05/22 01:53:42;;;;;;;6.72;3.55;;;;;;;;;;6210439;28;20337;-71
2022/05/22 01:56:44;;;;;;;10.63;4.10;;;;;;;;;;6215488;28;20333;-71
2022/05/22 01:59:46;;;;;;;5.28;3.70;;;;;;;;;;6206896;28;20085;-70
2022/05/22 02:02:48;;;;;;;6.15;3.88;;;;;;;;;;6208155;28;20066;-73
2022/05/22 02:05:49;;;;;;;8.40;4.07;;;;;;;;;;6210680;28;20069;-71
2022/05/22 02:08:51;;;;;;;6.97;3.80;;;;;;;;;;6210441;28;20050;-71
2022/05/22 02:11:53;;;;;;;7.35;3.83;;;;;;;;;;6210654;28;20042;-69
2022/05/22 02:14:55;;;;;;;4.53;3.60;;;;;;;;;;6210253;28;20046;-74
2022/05/22 02:17:56;;;;;;;8.05;4.13;;;;;;;;;;6208347;28;20241;-73
2022/05/22 02:20:58;;;;;;;11.55;4.00;;;;;;;;;;6212461;28;20046;-72
2022/05/22 02:24:01;;;;;;;7.18;4.18;;;;;;;;;;6207082;28;20055;-72
2022/05/22 02:27:05;;;;;;;6.88;4.15;;;;;;;;;;6210993;28;20078;-73
2022/05/22 02:30:08;;;;;;;6.78;3.90;;;;;;;;;;6212518;28;20071;-73
2022/05/22 02:33:11;;;;;;;11.95;4.15;;;;;;;;;;6211172;28;20053;-74
2022/05/22 02:36:14;;;;;;;7.03;4.00;;;;;;;;;;6213390;28;20046;-74
2022/05/22 02:39:18;;;;;;;7.80;4.18;;;;;;;;;;6209702;28;20046;-74
2022/05/22 02:42:20;;;;;;;6.43;4.22;;;;;;;;;;6208788;28;20117;-73
2022/05/22 02:45:23;;;;;;;7.82;4.07;;;;;;;;;;6211303;28;20046;-74
2022/05/22 02:48:24;;;;;;;;;;;;;;;;;;6207812;28;20308;-73
2022/05/22 02:51:26;;;;;;;5.55;4.47;;;;;;;;;;6209424;28;19976;-73
2022/05/22 02:54:29;;;;;;;6.70;3.58;;;;;;;;;;6208056;28;20677;-73
2022/05/22 02:57:32;;;;;;;6.30;3.92;;;;;;;;;;6208884;28;20058;-74
2022/05/22 03:00:34;;;;;;;;;;;;;;;;;;6207433;28;20046;-73
2022/05/22 03:03:36;;;;;;;7.53;4.20;;;;;;;;;;6209100;28;19997;-73
2022/05/22 03:06:40;;;;;;;4.90;3.30;;;;;;;;;;6211103;28;20053;-73
2022/05/22 03:09:44;;;;;;;6.75;4.13;;;;;;;;;;6208215;28;20054;-74
2022/05/22 03:12:46;;;;;;;7.38;4.30;;;;;;;;;;6208129;28;20064;-73
2022/05/22 03:15:49;;;;;;;6.95;3.83;;;;;;;;;;6205295;28;20054;-73
2022/05/22 03:18:51;;;;;;;4.82;3.90;;;;;;;;;;6208766;28;20045;-73
2022/05/22 03:21:53;;;;;;;5.38;3.58;;;;;;;;;;6208172;28;20058;-73
2022/05/22 03:24:57;;;;;;;7.47;4.18;;;;;;;;;;6207089;28;20049;-73
2022/05/22 03:27:58;;;;;;;7.15;4.07;;;;;;;;;;6207300;28;20058;-73
2022/05/22 03:31:00;;;;;;;6.22;4.10;;;;;;;;;;6207892;28;20047;-73
2022/05/22 03:34:02;;;;;;;7.03;4.18;;;;;;;;;;6210742;28;20058;-71
2022/05/22 03:37:04;;;;;;;7.07;3.92;;;;;;;;;;6209182;28;20248;-70
2022/05/22 03:40:09;;;;;;;5.30;3.80;;;;;;;;;;6209959;28;20042;-70
2022/05/22 03:43:11;;;;;;;5.85;3.30;;;;;;;;;;6210032;28;20054;-70
2022/05/22 03:46:12;;;;;;;9.27;4.28;;;;;;;;;;6208862;28;20054;-70
2022/05/22 03:49:14;;;;;;;4.82;3.72;;;;;;;;;;6210313;28;20233;-70
2022/05/22 03:52:15;;;;;;;8.32;4.13;;;;;;;;;;6210096;28;20042;-70
2022/05/22 03:55:18;;;;;;;6.50;4.40;;;;;;;;;;6211878;28;20062;-70
2022/05/22 03:58:20;;;;;;;7.45;4.38;;;;;;;;;;6211363;28;20046;-70
2022/05/22 04:01:22;;;;;;;6.22;3.63;;;;;;;;;;6211524;28;20077;-70
2022/05/22 04:04:24;;;;;;;6.13;3.88;;;;;;;;;;6211783;28;20054;-70
2022/05/22 04:07:26;;;;;;;6.03;4.00;;;;;;;;;;6208830;28;20093;-71
2022/05/22 04:10:30;;;;;;;5.47;3.92;;;;;;;;;;6209339;28;20097;-70
2022/05/22 04:13:31;;;;;;;8.50;5.03;;;;;;;;;;6211317;28;20077;-69
2022/05/22 04:16:33;;;;;;;7.40;4.47;;;;;;;;;;6211868;28;20054;-70
2022/05/22 04:19:36;;;;;;;13.40;4.68;;;;;;;;;;6208162;28;20218;-70
2022/05/22 04:25:11;;;;;;;;;;;;;;;;;;6208998;28;20062;-70
2022/05/22 04:26:00;;;;;;;5.90;3.72;;;;;;;;;;6207279;28;19926;-69
2022/05/22 04:29:02;;;;;;;8.10;3.95;;;;;;;;;;6208899;28;20284;-70
2022/05/22 04:32:04;;;;;;;6.40;4.00;;;;;;;;;;6207496;28;20121;-70
2022/05/22 04:35:06;;;;;;;11.03;4.23;;;;;;;;;;6209293;28;21854;-70
2022/05/22 04:38:08;;;;;;;5.85;3.45;;;;;;;;;;6207787;28;20053;-70
2022/05/22 04:41:11;;;;;;;7.78;4.28;;;;;;;;;;6213417;28;20064;-70
2022/05/22 04:44:13;;;;;;;5.55;3.70;;;;;;;;;;6212753;28;20151;-70
2022/05/22 04:47:14;;;;;;;6.25;3.90;;;;;;;;;;6215312;28;20161;-70
2022/05/22 04:50:17;;;;;;;5.95;3.88;;;;;;;;;;6213811;28;20061;-70
2022/05/22 04:53:20;;;;;;;5.97;4.17;;;;;;;;;;6211030;28;20085;-70
2022/05/22 04:56:23;;;;;;;7.15;4.47;;;;;;;;;;6212190;28;20058;-70
2022/05/22 04:59:24;;;;;;;10.82;3.90;;;;;;;;;;6212180;28;20054;-70
2022/05/22 05:02:26;;;;;;;7.38;4.30;;;;;;;;;;6210883;28;20065;-70
2022/05/22 05:05:28;;;;;;;8.52;4.35;;;;;;;;;;6213080;28;20068;-70
2022/05/22 05:08:31;;;;;;;8.15;4.25;;;;;;;;;;6211723;28;20125;-70
2022/05/22 05:11:33;;;;;;;11.20;4.50;;;;;;;;;;6209331;28;20100;-70
2022/05/22 05:14:35;;;;;;;7.03;4.22;;;;;;;;;;6211649;28;20058;-70
2022/05/22 05:17:37;;;;;;;8.57;4.15;;;;;;;;;;6215275;28;20085;-70
2022/05/22 05:20:39;;;;;;;4.72;4.15;;;;;;;;;;6211148;28;20057;-70
2022/05/22 05:23:41;;;;;;;8.65;3.90;;;;;;;;;;6210635;28;20157;-70
2022/05/22 05:26:44;;;;;;;5.85;3.83;;;;;;;;;;6211018;28;20054;-70
2022/05/22 05:29:46;;;;;;;11.02;4.03;;;;;;;;;;6212085;28;20050;-70
2022/05/22 05:32:47;;;;;;;5.80;3.95;;;;;;;;;;6210327;28;20105;-69
2022/05/22 05:35:49;;;;;;;7.78;4.07;;;;;;;;;;6211682;28;20054;-69
2022/05/22 05:38:50;;;;;;;9.30;4.13;;;;;;;;;;6210612;28;20109;-70
2022/05/22 05:41:55;;;;;;;7.47;4.28;;;;;;;;;;6212905;28;20349;-69
2022/05/22 05:44:57;;;;;;;10.05;4.57;;;;;;;;;;6212963;28;20214;-69
2022/05/22 05:47:59;;;;;;;8.20;4.60;;;;;;;;;;6212887;28;20245;-69
2022/05/22 05:51:01;;;;;;;6.53;4.07;;;;;;;;;;6211539;28;20125;-70
2022/05/22 05:54:03;;;;;;;5.97;3.92;;;;;;;;;;6211495;28;20130;-70
2022/05/22 05:57:07;;;;;;;6.90;4.07;;;;;;;;;;6214280;28;20209;-69
2022/05/22 06:00:09;;;;;;;;;;;;;;;;;;6212331;28;20062;-69
2022/05/22 06:03:11;;;;;;;6.88;3.80;;;;;;;;;;6207837;28;19925;-70
2022/05/22 06:06:15;;;;;;;8.30;4.25;;;;;;;;;;6210380;28;20046;-70
2022/05/22 06:09:16;;;;;;;6.15;4.00;;;;;;;;;;6210640;28;20355;-70
2022/05/22 06:12:19;;;;;;;7.78;4.20;;;;;;;;;;6213530;28;20114;-70
2022/05/22 06:15:21;;;;;;;5.70;4.05;;;;;;;;;;6212546;28;20050;-69
2022/05/22 06:18:23;;;;;;;9.48;4.38;;;;;;;;;;6208945;28;20064;-70
2022/05/22 06:21:25;;;;;;;7.43;4.20;;;;;;;;;;6213837;28;20125;-69
2022/05/22 06:24:26;;;;;;;7.05;4.47;;;;;;;;;;6212311;28;20065;-69
2022/05/22 06:27:29;;;;;;;7.80;4.63;;;;;;;;;;6213226;28;20050;-70
2022/05/22 06:30:31;;;;;;;7.97;4.05;;;;;;;;;;6216013;28;20042;-69
2022/05/22 06:33:34;;;;;;;6.60;4.25;;;;;;;;;;6212853;28;20053;-69
2022/05/22 06:36:35;;;;;;;6.00;3.83;;;;;;;;;;6215804;28;20066;-69
2022/05/22 06:39:52;;;;;;;8.18;4.05;;;;;;;;;;6214661;28;20050;-70
2022/05/22 06:42:59;;;;;;;7.45;4.40;;;;;;;;;;6210590;28;20050;-68
2022/05/22 06:46:00;;;;;;;5.45;3.72;;;;;;;;;;6211829;28;20141;-70
2022/05/22 06:49:02;;;;;;;8.43;4.20;;;;;;;;;;6212243;28;20052;-69
2022/05/22 06:52:05;;;;;;;8.38;4.40;;;;;;;;;;6212324;28;20046;-69
2022/05/22 06:55:07;;;;;;;7.70;4.13;;;;;;;;;;6207798;28;20054;-70
2022/05/22 06:58:10;;;;;;;8.03;4.33;;;;;;;;;;6207314;28;20511;-69
2022/05/22 07:01:14;;;;;;;6.60;4.38;;;;;;;;;;6208474;28;20281;-70
2022/05/22 07:04:16;;;;;;;5.63;4.63;;;;;;;;;;6208321;28;20124;-69
2022/05/22 07:07:18;;;;;;;5.70;4.20;;;;;;;;;;6210526;28;20050;-69
2022/05/22 07:11:38;;;;;;;6.82;3.72;;;;;;;;;;6210197;28;20050;-69
2022/05/22 07:13:44;;;;;;;5.45;4.32;;;;;;;;;;6209246;28;20053;-70
2022/05/22 07:16:46;;;;;;;6.20;4.40;;;;;;;;;;6210299;28;20065;-70
2022/05/22 07:19:48;;;;;;;7.95;4.30;;;;;;;;;;6211656;28;20046;-69
2022/05/22 07:22:49;;;;;;;7.85;4.47;;;;;;;;;;6208343;28;20069;-69
2022/05/22 07:25:53;;;;;;;6.65;3.95;;;;;;;;;;6211016;28;20046;-69
2022/05/22 07:28:58;;;;;;;7.70;4.50;;;;;;;;;;6207673;28;20054;-70
2022/05/22 07:32:00;;;;;;;7.60;4.60;;;;;;;;;;6211185;28;20144;-70
2022/05/22 07:35:01;;;;;;;6.53;4.47;;;;;;;;;;6209751;28;20046;-69
2022/05/22 07:38:03;;;;;;;5.75;4.00;;;;;;;;;;6208592;28;20054;-70
2022/05/22 07:41:05;;;;;;;8.38;4.70;;;;;;;;;;6207872;28;20333;-70
2022/05/22 07:44:08;;;;;;;7.55;4.07;;;;;;;;;;6208077;28;20054;-69
2022/05/22 07:47:10;;;;;;;7.85;4.13;;;;;;;;;;6208105;28;20050;-69
2022/05/22 07:50:18;;;;;;;8.63;4.20;;;;;;;;;;6209235;28;20586;-69
2022/05/22 07:53:19;;;;;;;7.88;4.68;;;;;;;;;;6209862;28;20046;-70
2022/05/22 07:56:22;;;;;;;9.68;4.38;;;;;;;;;;6205542;28;20042;-70
2022/05/22 07:59:25;;;;;;;7.40;3.72;;;;;;;;;;6208125;28;20047;-70
2022/05/22 08:02:27;;;;;;;6.57;4.00;;;;;;;;;;6207411;28;20394;-70
2022/05/22 08:05:29;;;;;;;7.28;4.05;;;;;;;;;;6204636;28;20395;-70
2022/05/22 08:08:31;;;;;;;6.53;4.00;;;;;;;;;;6208762;28;20115;-70
2022/05/22 08:11:33;;;;;;;7.43;4.37;;;;;;;;;;6209112;28;20073;-70
2022/05/22 08:14:36;;;;;;;8.52;4.10;;;;;;;;;;6214716;28;20098;-70
2022/05/22 08:17:37;;;;;;;;;;;;;;;;;;6215023;28;20054;-70
2022/05/22 08:20:41;;;;;;;8.32;4.28;;;;;;;;;;6212499;28;20288;-70
2022/05/22 08:23:42;;;;;;;7.60;4.15;;;;;;;;;;6212752;28;20057;-70
2022/05/22 08:26:44;;;;;;;8.10;4.68;;;;;;;;;;6214471;28;20093;-70
2022/05/22 08:29:47;;;;;;;7.82;4.10;;;;;;;;;;6219649;28;20120;-69
2022/05/22 08:32:49;;;;;;;6.93;4.18;;;;;;;;;;6216571;28;20089;-69
2022/05/22 08:35:53;;;;;;;6.80;4.15;;;;;;;;;;6217874;28;20050;-70
2022/05/22 08:38:55;;;;;;;6.85;3.90;;;;;;;;;;6216694;28;20347;-70
2022/05/22 08:41:59;;;;;;;8.18;4.10;;;;;;;;;;6213755;28;20093;-71
2022/05/22 08:45:03;;;;;;;6.47;4.00;;;;;;;;;;6217264;28;20108;-71
2022/05/22 08:48:08;;;;;;;6.53;3.65;;;;;;;;;;6214430;28;20438;-71
2022/05/22 08:51:15;;;;;;;7.35;4.10;;;;;;;;;;6217641;28;20054;-70
2022/05/22 08:54:24;;;;;;;6.55;3.95;;;;;;;;;;6219858;28;20088;-70
2022/05/22 09:00:57;;;;;;;7.32;4.57;;;;;;;;;;6217355;28;20038;-70
2022/05/22 09:04:02;;;;;;;7.63;4.57;;;;;;;;;;6219710;28;20038;-71
2022/05/22 09:07:21;;;;;;;8.88;5.03;;;;;;;;;;6216756;28;20053;-71
2022/05/22 09:10:27;;;;;;;6.70;4.63;;;;;;;;;;6212899;28;20353;-71
2022/05/22 09:13:33;;;;;;;8.55;4.95;;;;;;;;;;6214090;28;20046;-71
2022/05/22 09:16:42;;;;;;;6.07;4.43;;;;;;;;;;6212482;28;20226;-71
2022/05/22 09:19:45;;;;;;;10.77;5.00;;;;;;;;;;6207934;28;20054;-70
2022/05/22 09:22:57;;;;;;;7.25;5.00;;;;;;;;;;6211719;28;20065;-70
2022/05/22 09:26:05;;;;;;;8.52;5.10;;;;;;;;;;6211126;28;20058;-71
2022/05/22 09:29:25;;;;;;;8.80;5.55;;;;;;;;;;6212549;28;20061;-69
2022/05/22 09:32:48;;;;;;;8.80;5.05;;;;;;;;;;6210578;28;20053;-70
2022/05/22 09:35:58;;;;;;;7.45;5.75;;;;;;;;;;6212390;28;20345;-67
2022/05/22 09:39:12;;;;;;;9.32;5.22;;;;;;;;;;6211470;28;20225;-72
2022/05/22 09:42:25;;;;;;;8.30;5.15;;;;;;;;;;6211367;28;20062;-71
2022/05/22 09:45:36;;;;;;;14.20;10.82;;;;;;;;;;6211699;28;20064;-68
2022/05/22 09:48:55;;;;;;;10.98;5.90;;;;;;;;;;6211856;28;20212;-67
2022/05/22 09:52:03;;;;;;;8.00;5.47;;;;;;;;;;6210759;28;20060;-68
2022/05/22 09:55:15;;;;;;;9.27;5.57;;;;;;;;;;6212466;28;20100;-67
2022/05/22 09:58:49;;;;;;;9.27;5.50;;;;;;;;;;6210097;28;20356;-68
2022/05/22 10:01:54;;;;;;;12.90;5.32;;;;;;;;;;6202332;28;20054;-68
2022/05/22 10:05:07;;;;;;;6.65;5.28;;;;;;;;;;6211417;28;20892;-68
2022/05/22 10:08:18;;;;;;;7.50;4.90;;;;;;;;;;6208981;28;20050;-68
2022/05/22 10:11:25;;;;;;;10.00;4.70;;;;;;;;;;6208535;28;20070;-67
2022/05/22 10:14:36;;;;;;;6.25;4.07;;;;;;;;;;6208565;28;20057;-67
2022/05/22 10:17:48;;;;;;;6.85;4.63;;;;;;;;;;6206126;28;20046;-68
2022/05/22 10:20:59;;;;;;;6.80;4.73;;;;;;;;;;6209796;28;20077;-68
2022/05/22 10:24:13;;;;;;;7.85;4.63;;;;;;;;;;6209582;28;20089;-68
2022/05/22 10:27:24;;;;;;;10.88;4.72;;;;;;;;;;6211594;28;20049;-68
2022/05/22 10:30:27;;;;;;;9.82;4.43;;;;;;;;;;6213390;28;20053;-68
2022/05/22 10:33:33;;;;;;;7.97;4.68;;;;;;;;;;6217926;28;20050;-67
2022/05/22 10:36:40;;;;;;;9.77;4.72;;;;;;;;;;6215577;28;20246;-68
2022/05/22 10:39:41;;;;;;;9.13;4.75;;;;;;;;;;6210919;28;20277;-67
2022/05/22 10:42:45;;;;;;;11.03;4.70;;;;;;;;;;6213256;28;20050;-67
2022/05/22 10:45:47;;;;;;;9.20;4.97;;;;;;;;;;6207909;28;20293;-68
2022/05/22 10:48:49;;;;;;;8.40;4.77;;;;;;;;;;6210451;28;20066;-68
2022/05/22 10:51:58;;;;;;;5.93;4.40;;;;;;;;;;6211827;28;20068;-68
2022/05/22 10:55:00;;;;;;;7.95;4.88;;;;;;;;;;6209523;28;20057;-68
2022/05/22 10:58:03;;;;;;;9.93;4.97;;;;;;;;;;6210589;28;20337;-68
2022/05/22 11:01:15;;;;;;;6.15;4.63;;;;;;;;;;6211907;28;20054;-67
2022/05/22 11:04:18;;;;;;;10.45;4.78;;;;;;;;;;6210107;28;20054;-68
2022/05/22 11:07:32;;;;;;;6.75;4.10;;;;;;;;;;6209604;28;20053;-68
2022/05/22 11:10:37;;;;;;;10.93;4.72;;;;;;;;;;6210163;28;20046;-68
2022/05/22 11:13:39;;;;;;;8.20;4.78;;;;;;;;;;6208801;28;20112;-67
2022/05/22 11:16:42;;;;;;;6.38;4.38;;;;;;;;;;6209167;28;20122;-68
2022/05/22 11:19:45;;;;;;;8.13;4.60;;;;;;;;;;6211038;28;20053;-68
2022/05/22 11:22:59;;;;;;;9.68;4.72;;;;;;;;;;6209243;28;20340;-68
2022/05/22 11:26:08;;;;;;;7.85;4.40;;;;;;;;;;6207327;28;20069;-68
2022/05/22 11:29:21;;;;;;;8.85;4.70;;;;;;;;;;6210261;28;20125;-67
2022/05/22 11:32:29;;;;;;;7.68;5.05;;;;;;;;;;6213766;28;20066;-68
2022/05/22 11:35:39;;;;;;;10.35;4.53;;;;;;;;;;6207498;28;20053;-68
2022/05/22 11:39:14;;;;;;;8.60;4.65;;;;;;;;;;6206629;28;20042;-67
2022/05/22 11:42:21;;;;;;;9.10;4.70;;;;;;;;;;6207928;28;20062;-67
2022/05/22 11:45:32;;;;;;;8.88;4.47;;;;;;;;;;6207772;28;20062;-68
2022/05/22 11:48:44;;;;;;;8.13;4.13;;;;;;;;;;6211745;28;20054;-68
2022/05/22 11:52:02;;;;;;;7.43;4.43;;;;;;;;;;6215512;28;20050;-68
2022/05/22 11:55:09;;;;;;;7.85;4.68;;;;;;;;;;6215831;28;20085;-66
2022/05/22 11:58:21;;;;;;;8.73;5.22;;;;;;;;;;6212226;28;20054;-68
2022/05/22 12:01:23;;;;;;;;;;;;;;;;;;6214924;28;20364;-72
2022/05/22 12:04:34;;;;;;;5.95;4.20;;;;;;;;;;6208744;28;19965;-67
2022/05/22 12:07:56;;;;;;;8.15;4.53;;;;;;;;;;6212081;28;20050;-69
2022/05/22 12:11:03;;;;;;;11.25;5.00;;;;;;;;;;6211865;28;20046;-70
2022/05/22 12:14:16;;;;;;;8.43;4.15;;;;;;;;;;6212802;28;20136;-70
2022/05/22 12:17:22;;;;;;;8.80;4.82;;;;;;;;;;6215261;28;20057;-72
2022/05/22 12:20:28;;;;;;;7.45;4.32;;;;;;;;;;6216498;28;20046;-72
2022/05/22 12:23:32;;;;;;;10.40;5.47;;;;;;;;;;6211862;28;20214;-71
2022/05/22 12:26:36;;;;;;;8.70;4.80;;;;;;;;;;6213426;28;20061;-70
2022/05/22 12:29:45;;;;;;;6.55;4.60;;;;;;;;;;6211942;28;20103;-71
2022/05/22 12:32:50;;;;;;;12.63;5.28;;;;;;;;;;6209744;28;20038;-72
2022/05/22 12:35:52;;;;;;;10.40;4.53;;;;;;;;;;6211023;28;20121;-72
2022/05/22 12:39:01;;;;;;;;;;;;;;;;;;6212592;28;20038;-72
2022/05/22 12:42:08;;;;;;;66.90;45.92;;;;;;;;;;6209905;28;19972;-73
2022/05/22 12:45:09;;;;;;;88.65;53.58;;;;;;;;;;6210524;28;20046;-73
2022/05/22 12:48:15;;;;;;;52.72;36.83;;;;;;;;;;6211186;28;20046;-72
2022/05/22 12:51:21;;;;;;;32.60;23.45;;;;;;;;;;6212617;28;20053;-69
2022/05/22 12:54:24;;;;;;;37.75;28.52;;;;;;;;;;6212128;28;20116;-72
2022/05/22 12:57:28;;;;;;;57.50;42.70;;;;;;;;;;6212440;28;20064;-71
2022/05/22 13:00:37;;;;;;;8.52;5.20;;;;;;;;;;6212267;28;20054;-69
2022/05/22 13:03:42;;;;;;;10.20;4.88;;;;;;;;;;6210359;28;20069;-72
2022/05/22 13:06:47;;;;;;;99.38;67.97;;;;;;;;;;6208770;28;20064;-70
2022/05/22 13:09:51;;;;;;;11.95;6.35;;;;;;;;;;6213050;28;20053;-70
2022/05/22 13:13:00;;;;;;;8.20;4.35;;;;;;;;;;6212206;28;20049;-70
2022/05/22 13:16:05;;;;;;;23.42;13.18;;;;;;;;;;6211849;28;20050;-70
2022/05/22 13:19:17;;;;;;;10.70;8.77;;;;;;;;;;6210671;28;20050;-71
2022/05/22 13:22:30;;;;;;;71.97;56.80;;;;;;;;;;6212979;28;20046;-70
2022/05/22 13:25:45;;;;;;;20.80;13.77;;;;;;;;;;6211011;28;20480;-70
2022/05/22 13:28:51;;;;;;;9.50;7.05;;;;;;;;;;6213050;28;20119;-70
2022/05/22 13:31:55;;;;;;;10.90;7.07;;;;;;;;;;6211808;28;20042;-70
2022/05/22 13:34:57;;;;;;;7.13;4.18;;;;;;;;;;6211380;28;20089;-68
2022/05/22 13:37:59;;;;;;;7.75;3.75;;;;;;;;;;6209636;28;20054;-71
2022/05/22 13:41:20;;;;;;;8.60;6.47;;;;;;;;;;6210009;28;20046;-69
2022/05/22 13:44:45;;;;;;;7.45;3.80;;;;;;;;;;6210617;28;20057;-70
2022/05/22 13:48:22;;;;;;;14.10;6.85;;;;;;;;;;6211292;28;20353;-70
2022/05/22 13:54:59;;;;;;;8.52;3.50;;;;;;;;;;6183029;28;20035;-73
2022/05/22 13:58:04;;;;;;;7.00;4.10;;;;;;;;;;6180149;28;20089;-72
2022/05/22 14:01:10;;;;;;;7.07;3.90;;;;;;;;;;6183397;28;20051;-73
2022/05/22 14:04:12;;;;;;;7.35;3.63;;;;;;;;;;6183182;28;20090;-73
2022/05/22 14:07:22;;;;;;;9.68;3.80;;;;;;;;;;6181365;28;20054;-73
2022/05/22 14:10:32;;;;;;;8.52;4.03;;;;;;;;;;6181548;28;20085;-73
2022/05/22 14:13:36;;;;;;;5.20;3.45;;;;;;;;;;6183280;28;20273;-73
2022/05/22 14:16:41;;;;;;;9.90;4.22;;;;;;;;;;6179066;28;20091;-72
2022/05/22 14:19:44;;;;;;;9.30;3.90;;;;;;;;;;6180746;28;20106;-74
2022/05/22 14:22:47;;;;;;;12.52;4.25;;;;;;;;;;6182781;28;20404;-73
2022/05/22 14:25:59;;;;;;;5.25;3.65;;;;;;;;;;6186167;28;20042;-73
2022/05/22 14:29:01;;;;;;;7.18;3.85;;;;;;;;;;6201565;28;20341;-72
2022/05/22 14:32:05;;;;;;;8.60;3.85;;;;;;;;;;6210252;28;20058;-73
2022/05/22 14:35:12;;;;;;;9.27;3.75;;;;;;;;;;6211773;28;20042;-73
2022/05/22 14:38:17;;;;;;;28.42;18.40;;;;;;;;;;6214752;28;20061;-71
2022/05/22 14:41:22;;;;;;;8.48;5.30;;;;;;;;;;6213896;28;20061;-72
2022/05/22 14:44:36;;;;;;;18.55;10.43;;;;;;;;;;6206989;28;20054;-72
2022/05/22 14:47:39;;;;;;;58.05;35.38;;;;;;;;;;6211962;28;20112;-73
2022/05/22 14:50:45;;;;;;;39.10;24.88;;;;;;;;;;6210587;28;20042;-71
2022/05/22 14:53:47;;;;;;;82.95;48.33;;;;;;;;;;6210651;28;20046;-69
2022/05/22 14:56:56;;;;;;;13.52;7.35;;;;;;;;;;6212939;28;20046;-71
2022/05/22 15:00:04;;;;;;;12.82;5.78;;;;;;;;;;6206140;28;20050;-72
2022/05/22 15:03:11;;;;;;;4.82;3.20;;;;;;;;;;6210239;28;20052;-71
2022/05/22 15:06:20;;;;;;;8.57;3.58;;;;;;;;;;6208348;28;20170;-71
2022/05/22 15:09:26;;;;;;;15.43;9.30;;;;;;;;;;6208156;28;20060;-72
2022/05/22 15:12:33;;;;;;;15.15;5.82;;;;;;;;;;6212680;28;20121;-72
2022/05/22 15:15:36;;;;;;;8.60;4.88;;;;;;;;;;6210503;28;20073;-70
2022/05/22 15:22:01;;;;;;;10.38;3.97;;;;;;;;;;6205292;28;20042;-71
2022/05/22 15:28:29;;;;;;;10.20;3.63;;;;;;;;;;6211417;28;20049;-73
2022/05/22 15:31:33;;;;;;;22.52;4.85;;;;;;;;;;6212811;28;20050;-72
2022/05/22 15:34:36;;;;;;;12.48;3.83;;;;;;;;;;6207691;28;20352;-73
2022/05/22 15:37:45;;;;;;;8.65;4.53;;;;;;;;;;6209531;28;20050;-73
2022/05/22 15:40:48;;;;;;;9.32;3.72;;;;;;;;;;6209503;28;20054;-73
2022/05/22 15:43:50;;;;;;;8.25;3.60;;;;;;;;;;6213414;28;20354;-73
2022/05/22 15:47:01;;;;;;;15.32;5.13;;;;;;;;;;6209376;28;20388;-68
2022/05/22 15:53:26;;;;;;;8.73;4.45;;;;;;;;;;6211528;28;20046;-71
2022/05/22 15:56:29;;;;;;;7.32;3.90;;;;;;;;;;6207659;28;20058;-76
2022/05/22 15:59:31;;;;;;;7.30;3.80;;;;;;;;;;6207874;28;20093;-74
2022/05/22 16:02:35;;;;;;;9.27;4.45;;;;;;;;;;6214298;28;20061;-74
2022/05/22 16:05:39;;;;;;;7.13;3.92;;;;;;;;;;6215644;28;20042;-74
2022/05/22 16:08:41;;;;;;;11.10;3.83;;;;;;;;;;6211110;28;20080;-75
2022/05/22 16:11:44;;;;;;;7.65;4.47;;;;;;;;;;6210716;28;20058;-74
2022/05/22 16:14:45;;;;;;;9.65;4.38;;;;;;;;;;6210758;28;20050;-74
2022/05/22 16:17:52;;;;;;;18.45;4.07;;;;;;;;;;6208084;28;20053;-75
2022/05/22 16:20:55;;;;;;;7.88;3.63;;;;;;;;;;6209853;28;20202;-74
2022/05/22 16:23:57;;;;;;;6.32;3.92;;;;;;;;;;6207770;28;20061;-74
2022/05/22 16:26:59;;;;;;;5.20;3.77;;;;;;;;;;6209593;28;20133;-74
2022/05/22 16:30:01;;;;;;;9.77;4.00;;;;;;;;;;6213081;28;20046;-74
2022/05/22 16:33:02;;;;;;;6.63;3.70;;;;;;;;;;6206246;28;20210;-74
2022/05/22 16:36:06;;;;;;;8.77;3.65;;;;;;;;;;6215972;28;20120;-75
2022/05/22 16:39:08;;;;;;;12.55;4.18;;;;;;;;;;6219230;28;20328;-75
2022/05/22 16:42:10;;;;;;;6.57;4.13;;;;;;;;;;6217716;28;20088;-74
2022/05/22 16:45:12;;;;;;;;;;;;;;;;;;6218642;28;20342;-75
2022/05/22 16:54:53;;;;;;;66.15;45.75;;;;;;;;;;6211984;28;20057;-72
2022/05/22 16:57:55;;;;;;;34.88;26.60;;;;;;;;;;6213217;28;20333;-73
2022/05/22 17:00:59;;;;;;;16.52;11.18;;;;;;;;;;6209534;28;20341;-82
2022/05/22 17:04:01;;;;;;;12.18;6.53;;;;;;;;;;6214715;28;20133;-74
2022/05/22 17:07:06;;;;;;;7.40;4.60;;;;;;;;;;6214645;28;20186;-74
2022/05/22 17:10:09;;;;;;;12.63;4.50;;;;;;;;;;6217747;28;20291;-74
2022/05/22 17:13:11;;;;;;;12.65;4.72;;;;;;;;;;6213037;28;20045;-73
2022/05/22 17:16:13;;;;;;;21.57;13.03;;;;;;;;;;6215036;28;20042;-74
2022/05/22 17:19:15;;;;;;;10.10;6.43;;;;;;;;;;6217283;28;20473;-72
2022/05/22 17:22:21;;;;;;;7.75;4.75;;;;;;;;;;6218945;28;20076;-73
2022/05/22 17:25:23;;;;;;;16.27;11.50;;;;;;;;;;6212665;28;20073;-73
2022/05/22 17:28:26;;;;;;;27.55;18.65;;;;;;;;;;6212332;28;20053;-74
2022/05/22 17:31:27;;;;;;;7.38;4.30;;;;;;;;;;6215685;28;20058;-74
2022/05/22 17:34:29;;;;;;;9.63;4.25;;;;;;;;;;6214674;28;20075;-75
2022/05/22 17:37:33;;;;;;;5.72;3.55;;;;;;;;;;6216691;28;20055;-74
2022/05/22 17:40:36;;;;;;;8.15;3.50;;;;;;;;;;6214486;28;20363;-75
2022/05/22 17:43:37;;;;;;;;;;;;;;;;;;6214772;28;20345;-75
2022/05/22 17:46:39;;;;;;;7.35;3.92;;;;;;;;;;6217801;28;20066;-75
2022/05/22 17:49:41;;;;;;;7.78;4.22;;;;;;;;;;6216791;28;20128;-76
2022/05/22 17:52:44;;;;;;;6.00;4.18;;;;;;;;;;6218210;28;20050;-76
2022/05/22 17:55:48;;;;;;;7.15;3.70;;;;;;;;;;6212644;28;20186;-76
2022/05/22 17:58:51;;;;;;;8.43;4.22;;;;;;;;;;6207760;28;20090;-74
2022/05/22 18:01:54;;;;;;;5.97;4.03;;;;;;;;;;6214234;28;20068;-74
2022/05/22 18:04:55;;;;;;;8.43;3.85;;;;;;;;;;6213750;28;20057;-75
2022/05/22 18:07:59;;;;;;;25.98;16.77;;;;;;;;;;6215525;28;20046;-71
2022/05/22 18:17:41;;;;;;;7.25;4.60;;;;;;;;;;6211907;28;20038;-72
2022/05/22 18:20:43;;;;;;;8.48;4.82;;;;;;;;;;6211102;28;20065;-81
2022/05/22 18:23:49;;;;;;;12.07;5.68;;;;;;;;;;6217136;28;20117;-73
2022/05/22 18:26:54;;;;;;;6.15;4.50;;;;;;;;;;6215485;28;20108;-72
2022/05/22 18:29:56;;;;;;;15.43;5.60;;;;;;;;;;6215677;28;20120;-79
2022/05/22 18:32:58;;;;;;;9.43;5.35;;;;;;;;;;6213004;28;20073;-76
2022/05/22 18:36:00;;;;;;;13.27;7.25;;;;;;;;;;6215887;28;20076;-81
2022/05/22 18:39:03;;;;;;;9.50;6.97;;;;;;;;;;6218350;28;20101;-75
2022/05/22 18:42:05;;;;;;;;;;;;;;;;;;6220173;28;20280;-72
2022/05/22 18:45:07;;;;;;;30.63;23.48;;;;;;;;;;6218701;28;19918;-75
2022/05/22 18:48:13;;;;;;;9.40;6.35;;;;;;;;;;6216742;28;20153;-72
2022/05/22 18:51:16;;;;;;;9.88;6.07;;;;;;;;;;6215533;28;20061;-75
2022/05/22 18:54:18;;;;;;;8.52;5.95;;;;;;;;;;6216067;28;20069;-70
2022/05/22 18:57:22;;;;;;;10.20;4.82;;;;;;;;;;6215484;28;20065;-73
2022/05/22 19:00:27;;;;;;;19.20;7.72;;;;;;;;;;6215824;28;20112;-77